»·PEaware :: BAW72A KSAN-EGLL

BAW72A :: KSAN-EGLL

FLIGHT INFORMATION

Flight Status: Arrived
Operator:
British Airways
More flights by this operator :: More flights under this callsign
Pilot: Henderson P. (1210)
Aircraft: BOEING 747-400 (WINGLETS)
(B744)
More flights by this aircraft type
Origin: KSAN San Diego Intl-Lindbergh
United States
Destination: EGLL Heathrow
United Kingdom
More flights between these airports :: More routes between these airports
Route: +ZZOOO2 MTBAL AVRRY EED KD45Q KD60U KD78A KP90G KP09K 4900N/08000W 5130N/07000W JANJO 5500N/05000W 5600N/04000W 5600N/03000W 5600N/02000W PIKIL SOVED REVNU BAKUR N546 STU UP2 BEDEK OCK2F
File this flight plan on PilotEdge
Remarks:
Altitude:
(Current/Filed)
33,000ft
Speed:
(Current/Filed)
482kts
Departed: 28-Mar-19 08:56 PM
Arrived: 29-Mar-19 06:28 AM
Distance/Time
Traveled:
4752nm/9:32
Distance/Time
To Go:
Arrived

Flight Plot

Page will automatically refresh every two minutes.


Map Options




Map Legend


Flown Route
Filed Route
Departure Airport
Arrival Airport
Navaid (VOR, NDB)
Fix

Horizontal Profiles

Position Reports

Time Latitude Longitude Heading Altitude Ground
Speed
28-Mar-19 19:52 32.732535 -117.207133 191 28ft 0kts
28-Mar-19 19:53 32.732535 -117.207133 191 28ft 0kts
28-Mar-19 19:53 32.732535 -117.207133 191 28ft 0kts
28-Mar-19 19:55 32.732535 -117.207133 191 28ft 0kts
28-Mar-19 19:55 32.732535 -117.207133 191 28ft 0kts
28-Mar-19 19:57 32.732535 -117.207133 191 28ft 0kts
28-Mar-19 19:58 32.732535 -117.207133 191 28ft 0kts
28-Mar-19 19:58 32.732535 -117.207133 191 28ft 0kts
28-Mar-19 20:00 32.732535 -117.207133 191 28ft 0kts
28-Mar-19 20:00 32.732535 -117.207133 191 28ft 0kts
28-Mar-19 20:01 32.732535 -117.207133 191 28ft 0kts
28-Mar-19 20:02 32.732535 -117.207133 191 28ft 0kts
28-Mar-19 20:03 32.732535 -117.207133 191 28ft 0kts
28-Mar-19 20:05 32.732535 -117.207133 191 28ft 0kts
28-Mar-19 20:05 32.732535 -117.207133 191 28ft 0kts
28-Mar-19 20:06 32.732535 -117.207133 191 28ft 0kts
28-Mar-19 20:07 32.732535 -117.207133 191 28ft 0kts
28-Mar-19 20:08 32.732535 -117.207133 191 28ft 0kts
28-Mar-19 20:09 32.732535 -117.207133 191 28ft 0kts
28-Mar-19 20:10 32.732535 -117.207133 191 28ft 0kts
28-Mar-19 20:11 32.732535 -117.207133 191 28ft 0kts
28-Mar-19 20:12 32.732535 -117.207133 191 28ft 0kts
28-Mar-19 20:13 32.732535 -117.207133 191 28ft 0kts
28-Mar-19 20:14 32.732535 -117.207133 191 28ft 0kts
28-Mar-19 20:15 32.732535 -117.207133 191 28ft 0kts
28-Mar-19 20:16 32.732535 -117.207133 191 28ft 0kts
28-Mar-19 20:17 32.732535 -117.207133 191 28ft 0kts
28-Mar-19 20:18 32.732535 -117.207133 191 28ft 0kts
28-Mar-19 20:19 32.732535 -117.207133 191 28ft 0kts
28-Mar-19 20:20 32.732535 -117.207133 191 28ft 0kts
28-Mar-19 20:21 32.732535 -117.207133 191 28ft 0kts
28-Mar-19 20:22 32.732535 -117.207133 191 28ft 0kts
28-Mar-19 20:23 32.732535 -117.207133 191 28ft 0kts
28-Mar-19 20:24 32.732535 -117.207133 191 28ft 0kts
28-Mar-19 20:25 32.732535 -117.207133 191 28ft 0kts
28-Mar-19 20:26 32.732535 -117.207133 191 28ft 0kts
28-Mar-19 20:27 32.732535 -117.207133 191 28ft 0kts
28-Mar-19 20:28 32.732535 -117.207133 191 28ft 0kts
28-Mar-19 20:29 32.732535 -117.207133 191 28ft 0kts
28-Mar-19 20:30 32.732535 -117.207133 191 28ft 0kts
28-Mar-19 20:31 32.732535 -117.207133 191 28ft 0kts
28-Mar-19 20:32 32.732535 -117.207133 191 28ft 0kts
28-Mar-19 20:33 32.732535 -117.207133 191 28ft 0kts
28-Mar-19 20:34 32.732535 -117.207133 191 28ft 0kts
28-Mar-19 20:35 32.732788 -117.207067 195 28ft 2kts
28-Mar-19 20:36 32.733066 -117.206901 178 28ft 2kts
28-Mar-19 20:37 32.733698 -117.206892 180 28ft 2kts
28-Mar-19 20:38 32.734017 -117.206886 180 28ft 0kts
28-Mar-19 20:39 32.734017 -117.206886 180 28ft 0kts
28-Mar-19 20:40 32.733568 -117.205694 26 28ft 7kts
28-Mar-19 20:41 32.735214 -117.204955 47 28ft 3kts
28-Mar-19 20:42 32.735357 -117.204764 48 28ft 0kts
28-Mar-19 20:43 32.735357 -117.204763 48 28ft 0kts
28-Mar-19 20:44 32.735358 -117.204762 48 28ft 0kts
28-Mar-19 20:45 32.735358 -117.204761 48 28ft 0kts
28-Mar-19 20:46 32.735359 -117.204760 48 28ft 0kts
28-Mar-19 20:47 32.735360 -117.204760 48 28ft 0kts
28-Mar-19 20:48 32.735360 -117.204759 48 28ft 0kts
28-Mar-19 20:49 32.735732 -117.202924 105 28ft 16kts
28-Mar-19 20:50 32.734196 -117.196589 106 28ft 18kts
28-Mar-19 20:51 32.733175 -117.191873 59 28ft 9kts
28-Mar-19 20:52 32.734722 -117.189770 105 28ft 18kts
28-Mar-19 20:53 32.733023 -117.182744 106 28ft 20kts
28-Mar-19 20:54 32.731622 -117.176968 105 28ft 15kts
28-Mar-19 20:55 32.730774 -117.178164 286 28ft 51kts
28-Mar-19 20:56 32.741087 -117.220990 287 771ft 170kts
28-Mar-19 20:57 32.754671 -117.280360 274 1753ft 222kts
28-Mar-19 20:58 32.702146 -117.323764 180 3406ft 281kts
28-Mar-19 20:59 32.643412 -117.265099 124 5987ft 298kts
28-Mar-19 21:00 32.623785 -117.169030 93 8428ft 309kts
28-Mar-19 21:01 32.615338 -117.064302 95 10677ft 327kts
28-Mar-19 21:02 32.605434 -116.955508 95 13007ft 332kts
28-Mar-19 21:03 32.615747 -116.843703 73 14177ft 369kts
28-Mar-19 21:04 32.681998 -116.747856 24 14753ft 412kts
28-Mar-19 21:05 32.790432 -116.694729 17 16568ft 433kts
28-Mar-19 21:06 32.904069 -116.639292 17 18560ft 447kts
28-Mar-19 21:07 33.020591 -116.581795 17 20346ft 461kts
28-Mar-19 21:08 33.139511 -116.519645 17 22033ft 473kts
28-Mar-19 21:09 33.261575 -116.455653 17 23554ft 485kts
28-Mar-19 21:10 33.385118 -116.385779 31 24822ft 509kts
28-Mar-19 21:11 33.478507 -116.253565 51 26164ft 531kts
28-Mar-19 21:12 33.564261 -116.107895 50 27301ft 538kts
28-Mar-19 21:13 33.634864 -115.947662 66 28479ft 548kts
28-Mar-19 21:14 33.687574 -115.776794 66 29727ft 545kts
28-Mar-19 21:15 33.741915 -115.606895 58 30747ft 541kts
28-Mar-19 21:16 33.840048 -115.474639 35 31558ft 527kts
28-Mar-19 21:17 33.950261 -115.358473 35 32418ft 527kts
28-Mar-19 21:19 34.097058 -115.201604 35 33401ft 529kts
28-Mar-19 21:19 34.170291 -115.122832 36 33833ft 530kts
28-Mar-19 21:20 34.280129 -115.004213 36 34453ft 532kts
28-Mar-19 21:21 34.390919 -114.884099 36 35052ft 534kts
28-Mar-19 21:22 34.501643 -114.763613 36 35088ft 536kts
28-Mar-19 21:23 34.612418 -114.642949 36 35076ft 535kts
28-Mar-19 21:24 34.722840 -114.521607 36 35079ft 536kts
28-Mar-19 21:25 34.823859 -114.388001 47 35079ft 543kts
28-Mar-19 21:26 34.916342 -114.242263 47 35088ft 544kts
28-Mar-19 21:27 35.010144 -114.096709 47 35107ft 545kts
28-Mar-19 21:28 35.104012 -113.951348 47 35129ft 545kts
28-Mar-19 21:29 35.197330 -113.805734 48 35138ft 546kts
28-Mar-19 21:30 35.290865 -113.659082 48 35142ft 545kts
28-Mar-19 21:31 35.383761 -113.512823 48 35146ft 546kts
28-Mar-19 21:32 35.477038 -113.365344 48 35156ft 546kts
28-Mar-19 21:33 35.569607 -113.218365 48 35167ft 545kts
28-Mar-19 21:34 35.662297 -113.070569 49 35178ft 545kts
28-Mar-19 21:35 35.754502 -112.922913 49 35193ft 544kts
28-Mar-19 21:36 35.846220 -112.775409 49 35198ft 543kts
28-Mar-19 21:37 35.937998 -112.627177 49 35202ft 542kts
28-Mar-19 21:38 36.029252 -112.479155 49 35195ft 542kts
28-Mar-19 21:39 36.120355 -112.330737 50 35199ft 541kts
28-Mar-19 21:40 36.210902 -112.182585 50 35195ft 540kts
28-Mar-19 21:41 36.301410 -112.033853 50 35181ft 541kts
28-Mar-19 21:42 36.391926 -111.884459 50 35156ft 541kts
28-Mar-19 21:43 36.481976 -111.735180 50 35125ft 541kts
28-Mar-19 21:44 36.572214 -111.584930 50 35088ft 543kts
28-Mar-19 21:46 36.707317 -111.358724 51 35050ft 543kts
28-Mar-19 21:47 36.842310 -111.131184 51 35048ft 544kts
28-Mar-19 21:48 36.931981 -110.979187 51 35052ft 543kts
28-Mar-19 21:49 37.021472 -110.826807 51 35058ft 543kts
28-Mar-19 21:50 37.110824 -110.673967 52 35078ft 543kts
28-Mar-19 21:51 37.199813 -110.521056 52 35077ft 542kts
28-Mar-19 21:52 37.288698 -110.367621 52 35088ft 543kts
28-Mar-19 21:53 37.377342 -110.214480 52 35094ft 543kts
28-Mar-19 21:54 37.465591 -110.060245 53 35106ft 542kts
28-Mar-19 21:55 37.558118 -109.910735 47 35119ft 540kts
28-Mar-19 21:56 37.654415 -109.765847 48 35123ft 540kts
28-Mar-19 21:57 37.750630 -109.619870 48 35130ft 540kts
28-Mar-19 21:58 37.846667 -109.474022 48 35123ft 540kts
28-Mar-19 21:59 37.942204 -109.327670 48 35107ft 540kts
28-Mar-19 22:00 38.037895 -109.180345 49 35089ft 542kts
28-Mar-19 22:01 38.133916 -109.031824 49 35079ft 544kts
28-Mar-19 22:02 38.229502 -108.883294 49 35077ft 544kts
28-Mar-19 22:03 38.324900 -108.734379 49 35074ft 544kts
28-Mar-19 22:04 38.420248 -108.584855 49 35071ft 544kts
28-Mar-19 22:05 38.515657 -108.434535 49 35063ft 544kts
28-Mar-19 22:06 38.610668 -108.284138 49 35038ft 544kts
28-Mar-19 22:07 38.705385 -108.133509 49 35016ft 544kts
28-Mar-19 22:08 38.799937 -107.982437 49 35011ft 544kts
28-Mar-19 22:09 38.894344 -107.830876 50 35011ft 544kts
28-Mar-19 22:10 38.988400 -107.679167 50 35055ft 544kts
28-Mar-19 22:11 39.082455 -107.526738 50 35104ft 545kts
28-Mar-19 22:12 39.176794 -107.373107 50 35143ft 545kts
28-Mar-19 22:13 39.260971 -107.235400 50 35163ft 545kts
28-Mar-19 22:14 39.346284 -107.095230 50 35140ft 545kts
28-Mar-19 22:15 39.439998 -106.940535 51 35107ft 545kts
28-Mar-19 22:17 39.533093 -106.786107 51 35084ft 545kts
28-Mar-19 22:18 39.626125 -106.631033 51 35092ft 546kts
28-Mar-19 22:19 39.719229 -106.475069 51 35139ft 546kts
28-Mar-19 22:20 39.812231 -106.318685 51 35141ft 547kts
28-Mar-19 22:21 39.905148 -106.161732 51 35137ft 548kts
28-Mar-19 22:22 39.997482 -106.004339 52 35146ft 548kts
28-Mar-19 22:23 40.086370 -105.842505 54 35120ft 548kts
28-Mar-19 22:24 40.174477 -105.679830 54 35146ft 548kts
28-Mar-19 22:25 40.263177 -105.517716 54 35141ft 547kts
28-Mar-19 22:26 40.351416 -105.354646 54 35174ft 549kts
28-Mar-19 22:27 40.439393 -105.191131 54 35183ft 550kts
28-Mar-19 22:28 40.527243 -105.026887 53 35179ft 549kts
28-Mar-19 22:29 40.614847 -104.862216 53 35179ft 550kts
28-Mar-19 22:30 40.702586 -104.696427 53 35179ft 550kts
28-Mar-19 22:31 40.789565 -104.531192 54 35176ft 550kts
28-Mar-19 22:32 40.876578 -104.365000 53 35174ft 551kts
28-Mar-19 22:33 40.963370 -104.198340 54 35172ft 550kts
28-Mar-19 22:34 41.049957 -104.031171 54 35172ft 550kts
28-Mar-19 22:35 41.136357 -103.863451 54 35170ft 549kts
28-Mar-19 22:36 41.222179 -103.695947 54 35170ft 549kts
28-Mar-19 22:37 41.307866 -103.527784 54 35174ft 551kts
28-Mar-19 22:38 41.393550 -103.358710 54 35184ft 550kts
28-Mar-19 22:39 41.478890 -103.189373 54 35191ft 549kts
28-Mar-19 22:40 41.563747 -103.020061 54 35194ft 549kts
28-Mar-19 22:41 41.648224 -102.850559 54 35202ft 549kts
28-Mar-19 22:41 41.718456 -102.708934 54 35205ft 548kts
28-Mar-19 22:43 41.816709 -102.509674 54 35205ft 549kts
28-Mar-19 22:43 41.886659 -102.367012 54 35206ft 549kts
28-Mar-19 22:45 41.984352 -102.166637 54 35211ft 550kts
28-Mar-19 22:46 42.067865 -101.994286 54 35221ft 550kts
28-Mar-19 22:46 42.137032 -101.850790 54 35227ft 550kts
28-Mar-19 22:48 42.233824 -101.648826 54 35249ft 550kts
28-Mar-19 22:48 42.302800 -101.504069 54 35252ft 550kts
28-Mar-19 22:50 42.399325 -101.300314 54 35257ft 551kts
28-Mar-19 22:50 42.467889 -101.154730 54 35263ft 550kts
28-Mar-19 22:51 42.549804 -100.979863 54 35269ft 550kts
28-Mar-19 22:52 42.631606 -100.804216 54 35280ft 550kts
28-Mar-19 22:53 42.713084 -100.628218 55 35287ft 551kts
28-Mar-19 22:54 42.794338 -100.451660 55 35290ft 550kts
28-Mar-19 22:55 42.875676 -100.274830 55 35291ft 550kts
28-Mar-19 22:56 42.956125 -100.097179 55 35297ft 552kts
28-Mar-19 22:57 43.032598 -99.915439 60 35308ft 554kts
28-Mar-19 22:58 43.100745 -99.726352 60 35313ft 554kts
28-Mar-19 22:59 43.169707 -99.537278 60 35318ft 555kts
28-Mar-19 23:00 43.239217 -99.348235 60 35319ft 555kts
28-Mar-19 23:01 43.307784 -99.158869 60 35326ft 555kts
28-Mar-19 23:02 43.376302 -98.968148 60 35329ft 556kts
28-Mar-19 23:03 43.444270 -98.777627 60 35331ft 556kts
28-Mar-19 23:04 43.512028 -98.586377 60 35332ft 556kts
28-Mar-19 23:05 43.579608 -98.394294 60 35335ft 557kts
28-Mar-19 23:06 43.647125 -98.201033 60 35337ft 558kts
28-Mar-19 23:07 43.714177 -98.007736 60 35340ft 558kts
28-Mar-19 23:08 43.780868 -97.814120 60 35337ft 558kts
28-Mar-19 23:09 43.847362 -97.619683 60 35327ft 558kts
28-Mar-19 23:10 43.913297 -97.425487 60 35313ft 558kts
28-Mar-19 23:11 43.979015 -97.230525 60 35302ft 557kts
28-Mar-19 23:12 44.044308 -97.035410 61 35296ft 556kts
28-Mar-19 23:13 44.109377 -96.839534 61 35305ft 556kts
28-Mar-19 23:14 44.173811 -96.644147 61 35306ft 557kts
28-Mar-19 23:15 44.238037 -96.447951 61 35305ft 557kts
28-Mar-19 23:16 44.302014 -96.251050 61 35309ft 557kts
28-Mar-19 23:17 44.365708 -96.053539 61 35322ft 558kts
28-Mar-19 23:18 44.428975 -95.855883 61 35328ft 557kts
28-Mar-19 23:19 44.492026 -95.657401 61 35328ft 557kts
28-Mar-19 23:20 44.554565 -95.458973 61 35321ft 558kts
28-Mar-19 23:21 44.617029 -95.259353 61 35319ft 559kts
28-Mar-19 23:22 44.678980 -95.059772 61 35315ft 559kts
28-Mar-19 23:23 44.740788 -94.859124 61 35316ft 559kts
28-Mar-19 23:24 44.802284 -94.657868 61 35309ft 559kts
28-Mar-19 23:25 44.863400 -94.456352 61 35301ft 559kts
28-Mar-19 23:26 44.924425 -94.254848 62 35301ft 559kts
28-Mar-19 23:27 44.984490 -94.052383 62 35307ft 559kts
28-Mar-19 23:28 45.055615 -93.858545 53 35306ft 553kts
28-Mar-19 23:29 45.131272 -93.670028 54 35301ft 553kts
28-Mar-19 23:30 45.207049 -93.480184 53 35293ft 552kts
28-Mar-19 23:31 45.282131 -93.290747 54 35290ft 552kts
28-Mar-19 23:32 45.357017 -93.099558 54 35294ft 553kts
28-Mar-19 23:33 45.431179 -92.908809 54 35302ft 552kts
28-Mar-19 23:34 45.505349 -92.716685 54 35303ft 552kts
28-Mar-19 23:35 45.578786 -92.525158 54 35296ft 551kts
28-Mar-19 23:36 45.652259 -92.332169 54 35283ft 552kts
28-Mar-19 23:37 45.725144 -92.139374 54 35278ft 551kts
28-Mar-19 23:38 45.797685 -91.946136 54 35268ft 551kts
28-Mar-19 23:39 45.869808 -91.752637 54 35253ft 552kts
28-Mar-19 23:40 45.941929 -91.557752 55 35251ft 552kts
28-Mar-19 23:41 46.013582 -91.362700 55 35252ft 551kts
28-Mar-19 23:42 46.084603 -91.168028 55 35252ft 548kts
28-Mar-19 23:43 46.155028 -90.973561 55 35254ft 548kts
28-Mar-19 23:44 46.225284 -90.778144 55 35249ft 548kts
28-Mar-19 23:45 46.295029 -90.582727 56 35247ft 547kts
28-Mar-19 23:46 46.364774 -90.386510 55 35240ft 548kts
28-Mar-19 23:47 46.434042 -90.189745 56 35230ft 548kts
28-Mar-19 23:48 46.502663 -89.992229 57 35227ft 549kts
28-Mar-19 23:49 46.564485 -89.789018 60 35227ft 551kts
28-Mar-19 23:50 46.625523 -89.584669 60 35219ft 551kts
28-Mar-19 23:51 46.687418 -89.381427 60 35213ft 550kts
28-Mar-19 23:52 46.748602 -89.177308 60 35199ft 549kts
28-Mar-19 23:53 46.809099 -88.973080 60 35195ft 549kts
28-Mar-19 23:54 46.869356 -88.767882 61 35194ft 549kts
28-Mar-19 23:55 46.929116 -88.562657 61 35192ft 549kts
28-Mar-19 23:56 46.988606 -88.356634 61 35193ft 548kts
28-Mar-19 23:57 47.047639 -88.150455 61 35196ft 549kts
28-Mar-19 23:58 47.106245 -87.944037 62 35203ft 549kts
28-Mar-19 23:59 47.164649 -87.736530 62 35211ft 549kts
29-Mar-19 00:00 47.222583 -87.528920 62 35207ft 549kts
29-Mar-19 00:01 47.280234 -87.320523 62 35209ft 550kts
29-Mar-19 00:02 47.337469 -87.111805 62 35204ft 550kts
29-Mar-19 00:03 47.394338 -86.902584 62 35197ft 550kts
29-Mar-19 00:04 47.450848 -86.692831 63 35190ft 551kts
29-Mar-19 00:05 47.507248 -86.481607 63 35161ft 551kts
29-Mar-19 00:06 47.563162 -86.270297 63 35128ft 552kts
29-Mar-19 00:07 47.618549 -86.059058 63 35117ft 552kts
29-Mar-19 00:08 47.673708 -85.846761 63 35107ft 552kts
29-Mar-19 00:09 47.728655 -85.633311 63 35097ft 553kts
29-Mar-19 00:10 47.783019 -85.420143 64 35086ft 553kts
29-Mar-19 00:11 47.837088 -85.206133 64 35078ft 553kts
29-Mar-19 00:12 47.890877 -84.991153 64 35071ft 553kts
29-Mar-19 00:13 47.944229 -84.775960 65 35070ft 554kts
29-Mar-19 00:14 47.997142 -84.560425 65 35070ft 555kts
29-Mar-19 00:15 48.049795 -84.343860 65 35069ft 554kts
29-Mar-19 00:16 48.102004 -84.127003 65 35070ft 555kts
29-Mar-19 00:17 48.153863 -83.909456 65 35070ft 555kts
29-Mar-19 00:18 48.205266 -83.691665 65 35070ft 555kts
29-Mar-19 00:19 48.256268 -83.473385 66 35070ft 554kts
29-Mar-19 00:20 48.306988 -83.254098 66 35076ft 555kts
29-Mar-19 00:21 48.357079 -83.035314 66 35084ft 556kts
29-Mar-19 00:22 48.407061 -82.814739 67 35096ft 557kts
29-Mar-19 00:23 48.456605 -82.593769 67 35111ft 557kts
29-Mar-19 00:24 48.505737 -82.372362 67 35142ft 557kts
29-Mar-19 00:25 48.554378 -82.150817 67 35155ft 558kts
29-Mar-19 00:26 48.602751 -81.928101 68 35164ft 558kts
29-Mar-19 00:27 48.650554 -81.705635 68 35167ft 557kts
29-Mar-19 00:28 48.697971 -81.482529 68 35169ft 557kts
29-Mar-19 00:29 48.744954 -81.259029 68 35170ft 557kts
29-Mar-19 00:30 48.791611 -81.034592 69 35171ft 558kts
29-Mar-19 00:31 48.837748 -80.810150 69 35172ft 558kts
29-Mar-19 00:32 48.883486 -80.585102 69 35170ft 559kts
29-Mar-19 00:33 48.929338 -80.359682 69 35170ft 558kts
29-Mar-19 00:34 48.973835 -80.133714 70 35169ft 558kts
29-Mar-19 00:35 49.025505 -79.911540 61 35167ft 555kts
29-Mar-19 00:36 49.091247 -79.698766 61 35156ft 553kts
29-Mar-19 00:37 49.155443 -79.486186 60 35155ft 553kts
29-Mar-19 00:38 49.220577 -79.272738 61 35152ft 552kts
29-Mar-19 00:39 49.284273 -79.059252 61 35152ft 553kts
29-Mar-19 00:40 49.347804 -78.844055 61 35150ft 554kts
29-Mar-19 00:41 49.410787 -78.628758 62 35143ft 554kts
29-Mar-19 00:42 49.473474 -78.412537 62 35142ft 553kts
29-Mar-19 00:43 49.535649 -78.196148 62 35141ft 553kts
29-Mar-19 00:44 49.597231 -77.979871 63 35140ft 552kts
29-Mar-19 00:45 49.658647 -77.762198 63 35140ft 553kts
29-Mar-19 00:46 49.719610 -77.544144 63 35139ft 553kts
29-Mar-19 00:47 49.780215 -77.325347 63 35138ft 554kts
29-Mar-19 00:48 49.840493 -77.105688 63 35136ft 556kts
29-Mar-19 00:49 49.900497 -76.884957 64 35131ft 556kts
29-Mar-19 00:50 49.960104 -76.663584 64 35125ft 557kts
29-Mar-19 00:51 50.019445 -76.441090 65 35120ft 556kts
29-Mar-19 00:52 50.078076 -76.219129 65 35113ft 557kts
29-Mar-19 00:53 50.136572 -75.995498 65 35106ft 557kts
29-Mar-19 00:54 50.194684 -75.771159 65 35100ft 557kts
29-Mar-19 00:55 50.252148 -75.547111 66 35095ft 556kts
29-Mar-19 00:56 50.309187 -75.322502 66 35090ft 556kts
29-Mar-19 00:57 50.365589 -75.098172 66 35088ft 555kts
29-Mar-19 00:58 50.421704 -74.872702 66 35086ft 555kts
29-Mar-19 00:59 50.477350 -74.646843 67 35085ft 556kts
29-Mar-19 01:00 50.532776 -74.419551 67 35074ft 556kts
29-Mar-19 01:01 50.587614 -74.192344 67 35071ft 557kts
29-Mar-19 01:02 50.642092 -73.964248 68 35059ft 557kts
29-Mar-19 01:03 50.696181 -73.735369 68 35056ft 556kts
29-Mar-19 01:04 50.749664 -73.506650 68 35044ft 556kts
29-Mar-19 01:05 50.802728 -73.277286 68 35036ft 555kts
29-Mar-19 01:06 50.855243 -73.047835 69 35030ft 555kts
29-Mar-19 01:07 50.907375 -72.817559 69 35023ft 555kts
29-Mar-19 01:08 50.958948 -72.587249 69 35016ft 555kts
29-Mar-19 01:09 51.010102 -72.356267 70 35009ft 555kts
29-Mar-19 01:10 51.060799 -72.124789 70 34959ft 554kts
29-Mar-19 01:11 51.111079 -71.892624 70 34954ft 554kts
29-Mar-19 01:12 51.160643 -71.661120 71 34952ft 554kts
29-Mar-19 01:14 51.209941 -71.428232 71 34948ft 554kts
29-Mar-19 01:15 51.258633 -71.195545 71 34944ft 554kts
29-Mar-19 01:16 51.306958 -70.961887 72 34934ft 555kts
29-Mar-19 01:17 51.354880 -70.727450 72 34914ft 554kts
29-Mar-19 01:18 51.402277 -70.492872 72 34910ft 554kts
29-Mar-19 01:19 51.449664 -70.257513 73 34905ft 553kts
29-Mar-19 01:20 51.495678 -70.022329 73 34900ft 553kts
29-Mar-19 01:21 51.553361 -69.793156 67 34894ft 554kts
29-Mar-19 01:22 51.612493 -69.564564 68 34888ft 555kts
29-Mar-19 01:23 51.672205 -69.335565 67 34883ft 555kts
29-Mar-19 01:24 51.731268 -69.105424 68 34875ft 555kts
29-Mar-19 01:25 51.789467 -68.874883 68 34866ft 557kts
29-Mar-19 01:26 51.847392 -68.642856 69 34857ft 557kts
29-Mar-19 01:27 51.905007 -68.409604 69 34847ft 558kts
29-Mar-19 01:28 51.962189 -68.175636 70 34841ft 558kts
29-Mar-19 01:29 52.018725 -67.941826 70 34835ft 558kts
29-Mar-19 01:30 52.074929 -67.706870 70 34819ft 558kts
29-Mar-19 01:31 52.130795 -67.470782 71 34813ft 558kts
29-Mar-19 01:32 52.185982 -67.234979 71 34809ft 557kts
29-Mar-19 01:33 52.240690 -66.998630 71 34805ft 558kts
29-Mar-19 01:34 52.294919 -66.761728 71 34793ft 559kts
29-Mar-19 01:35 52.348964 -66.522945 72 34789ft 560kts
29-Mar-19 01:36 52.402533 -66.283551 72 34785ft 561kts
29-Mar-19 01:37 52.455773 -66.042873 72 34786ft 562kts
29-Mar-19 01:38 52.508410 -65.802153 73 34779ft 561kts
29-Mar-19 01:39 52.560695 -65.560211 73 34772ft 560kts
29-Mar-19 01:40 52.612088 -65.319561 73 34760ft 559kts
29-Mar-19 01:41 52.663164 -65.077539 73 34745ft 558kts
29-Mar-19 01:41 52.705080 -64.876702 74 34732ft 557kts
29-Mar-19 01:43 52.763363 -64.594062 74 34712ft 557kts
29-Mar-19 01:43 52.804503 -64.392106 74 34700ft 557kts
29-Mar-19 01:45 52.861455 -64.109060 74 34686ft 556kts
29-Mar-19 01:45 52.901739 -63.906347 75 34675ft 556kts
29-Mar-19 01:46 52.949560 -63.662921 75 34675ft 556kts
29-Mar-19 01:47 52.996972 -63.418491 75 34683ft 556kts
29-Mar-19 01:48 53.043759 -63.174176 75 34692ft 555kts
29-Mar-19 01:50 53.097731 -62.888359 75 34705ft 554kts
29-Mar-19 01:50 53.135704 -62.684622 76 34717ft 554kts
29-Mar-19 01:51 53.180823 -62.439606 76 34733ft 553kts
29-Mar-19 01:52 53.225338 -62.194619 76 34748ft 553kts
29-Mar-19 01:53 53.269406 -61.948801 76 34762ft 551kts
29-Mar-19 01:54 53.312802 -61.703454 77 34778ft 551kts
29-Mar-19 01:55 53.355765 -61.457185 77 34780ft 550kts
29-Mar-19 01:56 53.398157 -61.210792 77 34786ft 549kts
29-Mar-19 01:57 53.439906 -60.964701 77 34789ft 550kts
29-Mar-19 01:58 53.481095 -60.718454 77 34791ft 549kts
29-Mar-19 01:59 53.521857 -60.471248 77 34790ft 548kts
29-Mar-19 02:00 53.561965 -60.224458 77 34792ft 547kts
29-Mar-19 02:01 53.601529 -59.977425 77 34796ft 546kts
29-Mar-19 02:02 53.640485 -59.730539 78 34802ft 546kts
29-Mar-19 02:03 53.679084 -59.482245 78 34811ft 546kts
29-Mar-19 02:04 53.717002 -59.234588 78 34806ft 545kts
29-Mar-19 02:05 53.754333 -58.986982 78 34815ft 544kts
29-Mar-19 02:06 53.791133 -58.739091 78 34828ft 542kts
29-Mar-19 02:07 53.827154 -58.492599 78 34841ft 540kts
29-Mar-19 02:08 53.862562 -58.246450 79 34854ft 537kts
29-Mar-19 02:09 53.897377 -58.000516 79 34866ft 536kts
29-Mar-19 02:10 53.931692 -57.754159 79 34874ft 536kts
29-Mar-19 02:11 53.965671 -57.507426 78 34880ft 538kts
29-Mar-19 02:12 53.999315 -57.259647 79 34883ft 538kts
29-Mar-19 02:13 54.031691 -57.012455 79 34891ft 535kts
29-Mar-19 02:14 54.072002 -56.767085 76 35579ft 541kts
29-Mar-19 02:15 54.112677 -56.520997 76 36890ft 540kts
29-Mar-19 02:16 54.154023 -56.275005 75 36897ft 539kts
29-Mar-19 02:17 54.194483 -56.029095 76 36903ft 540kts
29-Mar-19 02:18 54.234251 -55.781346 76 36894ft 540kts
29-Mar-19 02:19 54.273339 -55.533922 77 36891ft 538kts
29-Mar-19 02:20 54.311822 -55.286618 77 36891ft 537kts
29-Mar-19 02:21 54.349720 -55.039370 77 36893ft 536kts
29-Mar-19 02:22 54.386989 -54.792490 77 36894ft 535kts
29-Mar-19 02:23 54.423718 -54.545397 77 37004ft 535kts
29-Mar-19 02:24 54.460022 -54.297325 77 37003ft 534kts
29-Mar-19 02:25 54.495691 -54.049692 77 37003ft 534kts
29-Mar-19 02:26 54.530823 -53.801839 77 37003ft 533kts
29-Mar-19 02:27 54.565440 -53.553626 77 37003ft 533kts
29-Mar-19 02:28 54.599572 -53.304817 78 37004ft 532kts
29-Mar-19 02:29 54.633106 -53.056238 78 37004ft 531kts
29-Mar-19 02:30 54.666073 -52.807693 78 37005ft 531kts
29-Mar-19 02:31 54.698418 -52.559612 78 36947ft 529kts
29-Mar-19 02:32 54.730330 -52.310642 79 36970ft 531kts
29-Mar-19 02:33 54.761813 -52.060466 79 36974ft 532kts
29-Mar-19 02:34 54.792755 -51.810183 79 36974ft 531kts
29-Mar-19 02:35 54.823106 -51.560168 79 37031ft 530kts
29-Mar-19 02:36 54.852922 -51.309945 79 37040ft 529kts
29-Mar-19 02:37 54.882216 -51.059426 80 36943ft 530kts
29-Mar-19 02:38 54.911074 -50.807861 80 36935ft 529kts
29-Mar-19 02:39 54.939270 -50.557273 80 36938ft 528kts
29-Mar-19 02:40 54.967471 -50.306312 80 36940ft 528kts
29-Mar-19 02:41 54.994188 -50.054870 80 36943ft 528kts
29-Mar-19 02:42 55.027007 -49.805390 76 36946ft 529kts
29-Mar-19 02:43 55.061868 -49.555937 77 37039ft 528kts
29-Mar-19 02:44 55.096670 -49.307498 76 37040ft 528kts
29-Mar-19 02:45 55.131475 -49.058648 77 37040ft 528kts
29-Mar-19 02:46 55.165172 -48.808718 77 37040ft 528kts
29-Mar-19 02:47 55.198271 -48.558364 77 37041ft 528kts
29-Mar-19 02:48 55.230880 -48.307319 77 37041ft 528kts
29-Mar-19 02:49 55.263028 -48.055419 78 37041ft 528kts
29-Mar-19 02:50 55.294497 -47.804388 78 37042ft 528kts
29-Mar-19 02:51 55.325569 -47.552006 78 37043ft 528kts
29-Mar-19 02:52 55.356046 -47.299836 78 37043ft 527kts
29-Mar-19 02:53 55.385941 -47.047818 78 37043ft 527kts
29-Mar-19 02:54 55.415435 -46.794396 78 37043ft 528kts
29-Mar-19 02:55 55.444260 -46.541885 78 37044ft 526kts
29-Mar-19 02:56 55.472602 -46.288675 78 37045ft 527kts
29-Mar-19 02:57 55.500419 -46.035101 78 37045ft 527kts
29-Mar-19 02:58 55.527669 -45.781584 79 37141ft 527kts
29-Mar-19 02:59 55.554508 -45.526620 79 37141ft 527kts
29-Mar-19 03:00 55.580695 -45.272513 79 37164ft 526kts
29-Mar-19 03:01 55.606333 -45.018304 79 37162ft 525kts
29-Mar-19 03:02 55.631421 -44.764005 79 37164ft 525kts
29-Mar-19 03:03 55.655992 -44.509288 79 37162ft 525kts
29-Mar-19 03:04 55.680036 -44.254238 79 37160ft 525kts
29-Mar-19 03:05 55.703602 -43.998311 80 37158ft 525kts
29-Mar-19 03:06 55.726616 -43.742302 80 37156ft 525kts
29-Mar-19 03:07 55.749068 -43.486323 80 37154ft 525kts
29-Mar-19 03:08 55.770954 -43.230463 80 37152ft 524kts
29-Mar-19 03:09 55.792263 -42.974840 80 37150ft 524kts
29-Mar-19 03:10 55.813122 -42.717972 80 37148ft 524kts
29-Mar-19 03:11 55.833395 -42.461465 80 37146ft 524kts
29-Mar-19 03:12 55.853157 -42.204384 81 37145ft 525kts
29-Mar-19 03:13 55.872423 -41.946513 81 37143ft 525kts
29-Mar-19 03:14 55.891129 -41.688664 81 37142ft 525kts
29-Mar-19 03:15 55.909294 -41.430617 81 37140ft 525kts
29-Mar-19 03:16 55.926934 -41.172116 81 37139ft 524kts
29-Mar-19 03:17 55.943963 -40.914467 81 37137ft 524kts
29-Mar-19 03:18 55.960507 -40.655785 82 37138ft 524kts
29-Mar-19 03:19 55.977175 -40.397621 82 37135ft 525kts
29-Mar-19 03:20 55.992132 -40.138013 82 37133ft 525kts
29-Mar-19 03:21 56.005120 -39.878368 85 37132ft 526kts
29-Mar-19 03:22 56.014022 -39.617373 85 37131ft 526kts
29-Mar-19 03:23 56.022647 -39.356630 84 37130ft 526kts
29-Mar-19 03:24 56.032987 -39.096108 85 37128ft 525kts
29-Mar-19 03:25 56.041559 -38.835634 85 37127ft 525kts
29-Mar-19 03:26 56.049403 -38.575047 85 37126ft 525kts
29-Mar-19 03:27 56.056668 -38.314637 85 37125ft 525kts
29-Mar-19 03:28 56.063393 -38.053726 86 37124ft 525kts
29-Mar-19 03:29 56.069567 -37.792688 86 37123ft 525kts
29-Mar-19 03:30 56.075180 -37.532027 86 37122ft 525kts
29-Mar-19 03:31 56.080256 -37.270608 86 37121ft 525kts
29-Mar-19 03:32 56.084773 -37.009537 87 37066ft 526kts
29-Mar-19 03:33 56.088753 -36.747443 87 36979ft 524kts
29-Mar-19 03:34 56.092159 -36.486999 87 36976ft 524kts
29-Mar-19 03:35 56.095023 -36.225583 88 36972ft 525kts
29-Mar-19 03:36 56.097336 -35.964077 88 36969ft 525kts
29-Mar-19 03:37 56.099096 -35.702739 88 36965ft 525kts
29-Mar-19 03:38 56.100305 -35.441494 88 36962ft 525kts
29-Mar-19 03:39 56.100962 -35.180018 89 36959ft 524kts
29-Mar-19 03:40 56.101066 -34.918367 89 36956ft 525kts
29-Mar-19 03:41 56.100616 -34.656642 90 36952ft 525kts
29-Mar-19 03:42 56.099616 -34.395500 90 36949ft 525kts
29-Mar-19 03:43 56.098061 -34.133697 91 36946ft 525kts
29-Mar-19 03:44 56.095955 -33.872358 91 36943ft 525kts
29-Mar-19 03:45 56.093305 -33.611584 91 36940ft 525kts
29-Mar-19 03:46 56.090089 -33.349632 92 36937ft 525kts
29-Mar-19 03:47 56.086325 -33.088134 92 36934ft 525kts
29-Mar-19 03:48 56.082003 -32.826346 92 36931ft 526kts
29-Mar-19 03:49 56.077137 -32.565247 93 36928ft 526kts
29-Mar-19 03:50 56.071707 -32.303536 93 36927ft 526kts
29-Mar-19 03:51 56.065724 -32.041823 94 36924ft 525kts
29-Mar-19 03:52 56.059207 -31.780943 94 36921ft 525kts
29-Mar-19 03:53 56.052144 -31.520269 94 36918ft 526kts
29-Mar-19 03:54 56.044517 -31.259210 95 36916ft 526kts
29-Mar-19 03:55 56.036296 -30.996834 95 36888ft 527kts
29-Mar-19 03:56 56.027551 -30.735475 96 36884ft 526kts
29-Mar-19 03:57 56.018921 -30.473696 96 36882ft 528kts
29-Mar-19 03:58 56.008705 -30.212562 97 36881ft 527kts
29-Mar-19 03:59 56.001133 -29.951310 90 36880ft 529kts
29-Mar-19 04:00 56.011147 -29.688251 88 36879ft 531kts
29-Mar-19 04:01 56.020231 -29.425712 89 36877ft 531kts
29-Mar-19 04:02 56.030610 -29.162225 88 36876ft 532kts
29-Mar-19 04:03 56.039621 -28.896985 89 36874ft 533kts
29-Mar-19 04:04 56.047720 -28.632710 90 36873ft 533kts
29-Mar-19 04:05 56.055235 -28.367683 90 36871ft 534kts
29-Mar-19 04:06 56.062163 -28.102985 91 36870ft 533kts
29-Mar-19 04:07 56.068529 -27.838170 91 36877ft 533kts
29-Mar-19 04:08 56.074346 -27.572324 91 36876ft 533kts
29-Mar-19 04:09 56.079571 -27.307498 91 36874ft 535kts
29-Mar-19 04:10 56.084258 -27.040916 92 36892ft 536kts
29-Mar-19 04:12 56.088378 -26.773770 92 36952ft 537kts
29-Mar-19 04:13 56.091920 -26.506675 93 36954ft 537kts
29-Mar-19 04:14 56.094888 -26.238880 93 36954ft 538kts
29-Mar-19 04:15 56.097283 -25.970629 93 36956ft 538kts
29-Mar-19 04:16 56.099094 -25.702737 94 36959ft 538kts
29-Mar-19 04:17 56.100324 -25.435458 94 36961ft 538kts
29-Mar-19 04:18 56.100977 -25.166459 94 36964ft 539kts
29-Mar-19 04:19 56.101048 -24.898466 95 36967ft 540kts
29-Mar-19 04:20 56.100532 -24.628276 95 36970ft 541kts
29-Mar-19 04:21 56.099429 -24.358549 96 36974ft 542kts
29-Mar-19 04:22 56.097739 -24.089323 96 36977ft 541kts
29-Mar-19 04:23 56.095462 -23.819824 96 36980ft 541kts
29-Mar-19 04:24 56.092597 -23.550349 97 36984ft 541kts
29-Mar-19 04:25 56.089149 -23.280850 97 36912ft 542kts
29-Mar-19 04:26 56.085100 -23.010699 97 36915ft 543kts
29-Mar-19 04:27 56.080461 -22.740434 98 36920ft 542kts
29-Mar-19 04:28 56.075227 -22.470159 98 36905ft 544kts
29-Mar-19 04:29 56.069414 -22.200367 99 36908ft 543kts
29-Mar-19 04:30 56.063006 -21.930437 99 36912ft 542kts
29-Mar-19 04:31 56.056025 -21.661110 99 36917ft 542kts
29-Mar-19 04:32 56.048465 -21.392124 99 36922ft 543kts
29-Mar-19 04:33 56.040295 -21.122358 100 36928ft 542kts
29-Mar-19 04:34 56.031524 -20.852256 100 36933ft 544kts
29-Mar-19 04:35 56.022193 -20.582976 100 36939ft 544kts
29-Mar-19 04:35 56.014575 -20.357850 101 36945ft 544kts
29-Mar-19 04:37 56.001798 -20.043853 101 36971ft 542kts
29-Mar-19 04:38 56.003329 -19.772869 94 37584ft 549kts
29-Mar-19 04:38 56.007083 -19.546361 94 38905ft 544kts
29-Mar-19 04:40 56.012427 -19.231745 93 38987ft 543kts
29-Mar-19 04:40 56.015914 -19.006625 94 38991ft 544kts
29-Mar-19 04:42 56.019439 -18.691495 94 38997ft 544kts
29-Mar-19 04:42 56.021410 -18.466399 95 39002ft 544kts
29-Mar-19 04:43 56.023227 -18.196356 95 39009ft 544kts
29-Mar-19 04:44 56.024456 -17.925559 95 39015ft 543kts
29-Mar-19 04:45 56.025092 -17.655684 96 39022ft 543kts
29-Mar-19 04:47 56.025088 -17.340746 96 39029ft 544kts
29-Mar-19 04:47 56.024596 -17.115777 96 39035ft 544kts
29-Mar-19 04:48 56.023461 -16.845114 96 39043ft 544kts
29-Mar-19 04:49 56.021736 -16.575028 96 39050ft 543kts
29-Mar-19 04:50 56.019435 -16.305787 97 39066ft 542kts
29-Mar-19 04:51 56.016546 -16.036546 97 39081ft 541kts
29-Mar-19 04:52 56.013087 -15.768330 97 39091ft 540kts
29-Mar-19 04:53 56.009663 -15.501522 96 39104ft 541kts
29-Mar-19 04:54 56.004822 -15.233730 98 39187ft 541kts
29-Mar-19 04:55 55.999581 -14.965469 96 39203ft 538kts
29-Mar-19 04:56 56.000314 -14.699547 95 39205ft 537kts
29-Mar-19 04:57 56.001613 -14.432554 95 39207ft 536kts
29-Mar-19 04:58 56.000743 -14.166761 96 39210ft 533kts
29-Mar-19 04:59 55.969157 -13.920065 126 39218ft 501kts
29-Mar-19 05:00 55.895046 -13.713651 133 39219ft 490kts
29-Mar-19 05:01 55.818726 -13.511749 132 39225ft 490kts
29-Mar-19 05:02 55.743983 -13.308725 131 39231ft 497kts
29-Mar-19 05:03 55.667569 -13.105016 131 39235ft 494kts
29-Mar-19 05:04 55.590828 -12.902759 131 39240ft 494kts
29-Mar-19 05:05 55.514187 -12.702492 131 39246ft 493kts
29-Mar-19 05:06 55.437035 -12.502537 131 39251ft 492kts
29-Mar-19 05:07 55.359745 -12.303845 132 39257ft 492kts
29-Mar-19 05:08 55.282232 -12.106177 132 39263ft 491kts
29-Mar-19 05:09 55.204566 -11.909716 131 39269ft 490kts
29-Mar-19 05:10 55.126637 -11.714113 131 39277ft 489kts
29-Mar-19 05:11 55.048816 -11.520328 131 39319ft 488kts
29-Mar-19 05:12 54.970704 -11.327330 131 39321ft 487kts
29-Mar-19 05:13 54.892211 -11.134894 131 39322ft 487kts
29-Mar-19 05:14 54.813741 -10.943993 130 39324ft 487kts
29-Mar-19 05:15 54.734740 -10.753274 130 39325ft 487kts
29-Mar-19 05:16 54.655652 -10.563711 130 39327ft 486kts
29-Mar-19 05:17 54.576638 -10.374618 130 39329ft 485kts
29-Mar-19 05:18 54.496902 -10.187481 130 39330ft 484kts
29-Mar-19 05:19 54.415174 -10.004060 132 39333ft 483kts
29-Mar-19 05:20 54.331226 -9.824652 132 39336ft 483kts
29-Mar-19 05:21 54.247193 -9.645607 131 39346ft 483kts
29-Mar-19 05:22 54.163960 -9.465329 132 39348ft 483kts
29-Mar-19 05:23 54.079995 -9.286978 132 39348ft 482kts
29-Mar-19 05:24 53.995634 -9.109441 132 39348ft 483kts
29-Mar-19 05:25 53.911131 -8.932950 131 39348ft 481kts
29-Mar-19 05:26 53.826447 -8.757298 131 39348ft 481kts
29-Mar-19 05:27 53.741336 -8.582014 131 39350ft 481kts
29-Mar-19 05:28 53.656360 -8.408238 131 39354ft 481kts
29-Mar-19 05:29 53.570942 -8.234777 131 39362ft 481kts
29-Mar-19 05:30 53.485086 -8.061637 132 39369ft 481kts
29-Mar-19 05:31 53.399259 -7.889762 131 39377ft 480kts
29-Mar-19 05:32 53.313170 -7.718535 131 39383ft 480kts
29-Mar-19 05:33 53.226927 -7.548176 131 39387ft 480kts
29-Mar-19 05:34 53.140729 -7.379067 131 39389ft 480kts
29-Mar-19 05:35 53.054126 -7.210310 131 39390ft 479kts
29-Mar-19 05:36 52.967311 -7.042280 131 39392ft 479kts
29-Mar-19 05:37 52.880206 -6.874819 131 39397ft 479kts
29-Mar-19 05:38 52.793025 -6.708334 131 39401ft 479kts
29-Mar-19 05:39 52.705671 -6.542621 131 39406ft 479kts
29-Mar-19 05:40 52.617876 -6.377177 131 39406ft 478kts
29-Mar-19 05:41 52.530247 -6.213122 130 39420ft 479kts
29-Mar-19 05:42 52.442238 -6.048925 130 39411ft 478kts
29-Mar-19 05:43 52.354155 -5.885850 131 39415ft 478kts
29-Mar-19 05:44 52.265553 -5.723875 131 39420ft 478kts
29-Mar-19 05:45 52.189619 -5.546569 120 39427ft 477kts
29-Mar-19 05:46 52.120301 -5.362361 121 39443ft 477kts
29-Mar-19 05:47 52.049186 -5.179611 121 39449ft 477kts
29-Mar-19 05:48 51.984252 -4.993276 110 39457ft 476kts
29-Mar-19 05:49 51.941159 -4.790663 108 39458ft 474kts
29-Mar-19 05:50 51.897960 -4.589250 108 39463ft 474kts
29-Mar-19 05:51 51.855181 -4.387619 108 39466ft 474kts
29-Mar-19 05:52 51.811611 -4.186050 108 39465ft 474kts
29-Mar-19 05:53 51.767641 -3.985845 109 39464ft 474kts
29-Mar-19 05:54 51.723227 -3.785650 109 39463ft 474kts
29-Mar-19 05:55 51.678949 -3.585603 109 39463ft 473kts
29-Mar-19 05:56 51.633629 -3.386958 109 39280ft 469kts
29-Mar-19 05:57 51.596769 -3.192026 101 38012ft 445kts
29-Mar-19 05:58 51.571979 -3.000589 101 36149ft 429kts
29-Mar-19 05:59 51.546923 -2.815848 101 34217ft 417kts
29-Mar-19 06:00 51.523146 -2.636470 101 32301ft 404kts
29-Mar-19 06:01 51.500171 -2.463318 101 30435ft 391kts
29-Mar-19 06:02 51.476628 -2.295730 102 28538ft 380kts
29-Mar-19 06:03 51.453395 -2.132586 102 26646ft 369kts
29-Mar-19 06:04 51.431435 -1.974535 101 24792ft 359kts
29-Mar-19 06:05 51.409235 -1.820603 102 22970ft 348kts
29-Mar-19 06:06 51.387437 -1.671931 102 21221ft 337kts
29-Mar-19 06:07 51.366505 -1.528067 102 19508ft 327kts
29-Mar-19 06:08 51.345991 -1.388979 103 17850ft 316kts
29-Mar-19 06:09 51.327448 -1.266113 103 16321ft 308kts
29-Mar-19 06:10 51.311946 -1.132954 92 14641ft 302kts
29-Mar-19 06:11 51.311870 -1.015550 90 13206ft 297kts
29-Mar-19 06:12 51.310523 -0.884500 91 11600ft 293kts
29-Mar-19 06:13 51.309171 -0.769041 91 10543ft 275kts
29-Mar-19 06:14 51.307990 -0.651849 92 9391ft 259kts
29-Mar-19 06:15 51.306381 -0.538986 92 8385ft 243kts
29-Mar-19 06:16 51.307423 -0.433505 80 7345ft 231kts
29-Mar-19 06:17 51.324530 -0.340856 75 7053ft 215kts
29-Mar-19 06:18 51.341777 -0.249174 74 6727ft 214kts
29-Mar-19 06:19 51.359002 -0.163472 74 6359ft 194kts
29-Mar-19 06:20 51.398796 -0.119241 7 4902ft 193kts
29-Mar-19 06:21 51.451998 -0.124174 327 3749ft 192kts
29-Mar-19 06:22 51.465930 -0.197912 269 2938ft 167kts
29-Mar-19 06:23 51.465518 -0.267599 267 2106ft 148kts
29-Mar-19 06:24 51.465278 -0.332603 267 1335ft 143kts
29-Mar-19 06:25 51.465085 -0.395970 270 584ft 142kts
29-Mar-19 06:26 51.464887 -0.455659 270 96ft 82kts
29-Mar-19 06:27 51.466136 -0.468637 348 96ft 8kts
29-Mar-19 06:28 51.466553 -0.473108 269 96ft 11kts
29-Mar-19 06:29 51.466546 -0.477493 269 96ft 8kts
29-Mar-19 06:30 51.468069 -0.478689 359 96ft 6kts
29-Mar-19 06:31 51.469979 -0.478706 359 96ft 5kts
29-Mar-19 06:32 51.470315 -0.478709 359 96ft 0kts
29-Mar-19 06:33 51.470316 -0.478709 359 96ft 0kts
29-Mar-19 06:34 51.470525 -0.480216 269 96ft 0kts
29-Mar-19 06:35 51.470525 -0.480256 269 96ft 0kts
29-Mar-19 06:36 51.470525 -0.480256 269 96ft 0kts

Navigation Log

Ident Type
Flight plan parsing failed, navigation log unavailable